Time;durP1;ratioP1;P1;durP2;ratioP2;P2;SDS_P1;SDS_P2;PMS_P1;PMS_P2;Temp;Humidity;BMP_temperature;BMP_pressure;BME280_temperature;BME280_humidity;BME280_pressure;Samples;Min_cycle;Max_cycle;Signal;HPM_P1;HPM_P2
2023/03/11 00:00:27;;;;;;;7.30;3.90;;;3.20;99.90;;;;;;5118419;27;20169;-74
2023/03/11 00:02:55;;;;;;;7.07;2.20;;;3.20;99.90;;;;;;5117858;27;20566;-74
2023/03/11 00:05:29;;;;;;;9.47;2.70;;;3.40;99.90;;;;;;5118054;27;20185;-76
2023/03/11 00:07:55;;;;;;;4.40;2.10;;;3.30;99.90;;;;;;5136908;27;20169;-75
2023/03/11 00:10:25;;;;;;;10.47;2.73;;;3.30;99.90;;;;;;5100666;27;20211;-76
2023/03/11 00:12:51;;;;;;;8.17;2.30;;;3.20;99.90;;;;;;5117929;27;20252;-74
2023/03/11 00:15:17;;;;;;;6.17;2.23;;;3.30;99.90;;;;;;5135181;27;20216;-74
2023/03/11 00:17:43;;;;;;;10.90;2.50;;;3.30;99.90;;;;;;5123262;27;20241;-75
2023/03/11 00:20:20;;;;;;;6.37;2.60;;;3.30;99.90;;;;;;5097451;28;20165;-74
2023/03/11 00:22:47;;;;;;;9.83;2.87;;;3.30;99.90;;;;;;5115626;28;20158;-75
2023/03/11 00:25:13;;;;;;;7.43;2.57;;;3.30;99.90;;;;;;5097321;28;20169;-74
2023/03/11 00:27:39;;;;;;;8.97;2.50;;;3.30;99.90;;;;;;5097253;28;20625;-76
2023/03/11 00:30:05;;;;;;;7.00;2.27;;;3.30;99.90;;;;;;5115441;28;20169;-75
2023/03/11 00:32:31;;;;;;;5.23;2.40;;;3.30;99.90;;;;;;5111282;27;20165;-75
2023/03/11 00:34:57;;;;;;;5.97;2.30;;;3.30;99.90;;;;;;5117642;27;20223;-75
2023/03/11 00:37:23;;;;;;;8.83;2.80;;;3.30;99.90;;;;;;5117396;27;20177;-74
2023/03/11 00:39:49;;;;;;;8.20;2.50;;;3.30;99.90;;;;;;5117227;27;20188;-74
2023/03/11 00:42:14;;;;;;;6.47;2.30;;;3.40;99.90;;;;;;5135975;27;20517;-74
2023/03/11 00:44:40;;;;;;;6.80;2.03;;;3.30;99.90;;;;;;5117368;27;20165;-74
2023/03/11 00:47:06;;;;;;;13.37;3.13;;;2.80;99.90;;;;;;5117171;27;20643;-74
2023/03/11 00:49:32;;;;;;;7.13;2.63;;;2.90;99.90;;;;;;5117207;27;20161;-74
2023/03/11 00:51:57;;;;;;;9.47;2.57;;;3.00;99.90;;;;;;5135636;27;20150;-73
2023/03/11 00:54:23;;;;;;;9.40;2.50;;;2.80;99.90;;;;;;5126646;27;20201;-74
2023/03/11 00:56:48;;;;;;;6.63;2.23;;;2.90;99.90;;;;;;5115200;28;20717;-75
2023/03/11 00:59:15;;;;;;;11.70;2.33;;;2.90;99.90;;;;;;5096236;27;20178;-74
2023/03/11 01:01:40;;;;;;;4.53;2.00;;;3.00;99.90;;;;;;5114936;28;20186;-74
2023/03/11 01:04:06;;;;;;;5.70;2.10;;;3.00;99.90;;;;;;5096592;28;20542;-74
2023/03/11 01:06:32;;;;;;;6.43;2.17;;;3.10;99.90;;;;;;5096355;28;20292;-74
2023/03/11 01:08:57;;;;;;;10.17;2.40;;;2.90;99.90;;;;;;5096525;28;20268;-75
2023/03/11 01:11:23;;;;;;;7.50;2.67;;;3.00;99.90;;;;;;5114708;28;20672;-73
2023/03/11 01:13:48;;;;;;;6.63;1.90;;;2.90;99.90;;;;;;5096523;28;20177;-74
2023/03/11 01:16:14;;;;;;;5.43;2.07;;;3.00;99.90;;;;;;5114674;28;20221;-74
2023/03/11 01:18:40;;;;;;;13.83;2.90;;;3.10;99.90;;;;;;5103901;27;20614;-74
2023/03/11 01:21:06;;;;;;;5.30;2.07;;;3.00;99.90;;;;;;5135199;27;20153;-74
2023/03/11 01:23:31;;;;;;;4.87;2.40;;;3.10;99.90;;;;;;5134904;27;20150;-75
2023/03/11 01:25:57;;;;;;;8.83;2.10;;;3.10;99.90;;;;;;5134438;27;20207;-76
2023/03/11 01:28:23;;;;;;;8.23;2.10;;;3.10;99.90;;;;;;5135483;27;20149;-76
2023/03/11 01:30:48;;;;;;;5.83;2.20;;;2.80;99.90;;;;;;5116445;27;20169;-76
2023/03/11 01:33:18;;;;;;;8.20;2.13;;;2.70;99.90;;;;;;5134872;27;20189;-76
2023/03/11 01:35:44;;;;;;;6.50;2.47;;;2.80;99.90;;;;;;5116167;27;20176;-76
2023/03/11 01:38:11;;;;;;;5.97;2.50;;;2.90;99.90;;;;;;5116348;27;20169;-76
2023/03/11 01:40:39;;;;;;;10.27;2.70;;;3.00;99.90;;;;;;5134737;27;20214;-77
2023/03/11 01:43:25;;;;;;;8.00;3.13;;;3.20;99.90;;;;;;5134811;27;20157;-76
2023/03/11 01:45:51;;;;;;;13.03;2.43;;;3.00;99.90;;;;;;5118392;27;20688;-76
2023/03/11 01:48:19;;;;;;;7.47;2.50;;;3.20;99.90;;;;;;5113920;28;20236;-76
2023/03/11 01:50:49;;;;;;;13.67;2.60;;;3.20;99.90;;;;;;5114073;28;20146;-76
2023/03/11 01:53:16;;;;;;;10.60;3.10;;;3.20;99.90;;;;;;5095636;28;20635;-75
2023/03/11 01:55:44;;;;;;;6.37;2.57;;;2.90;99.90;;;;;;5112002;27;20260;-76
2023/03/11 01:58:16;;;;;;;7.53;2.17;;;3.00;99.90;;;;;;5134573;27;20172;-75
2023/03/11 02:00:43;;;;;;;7.47;2.50;;;3.10;99.90;;;;;;5134376;27;20161;-76
2023/03/11 02:03:22;;;;;;;8.43;2.90;;;3.20;99.90;;;;;;5134274;27;20162;-75
2023/03/11 02:05:50;;;;;;;12.37;2.50;;;3.20;99.90;;;;;;5133857;27;20264;-76
2023/03/11 02:08:15;;;;;;;11.00;2.53;;;3.20;99.90;;;;;;5134048;27;20653;-77
2023/03/11 02:10:42;;;;;;;6.10;2.30;;;3.20;99.90;;;;;;5115682;27;20149;-77
2023/03/11 02:13:09;;;;;;;11.03;2.87;;;3.30;99.90;;;;;;5126594;27;20222;-77
2023/03/11 02:15:35;;;;;;;11.80;2.73;;;3.20;99.90;;;;;;5095391;28;20706;-77
2023/03/11 02:18:03;;;;;;;8.57;3.13;;;3.00;99.90;;;;;;5098750;27;20630;-76
2023/03/11 02:20:35;;;;;;;12.23;3.00;;;2.90;99.90;;;;;;5115691;27;20190;-76
2023/03/11 02:23:02;;;;;;;12.97;2.73;;;2.90;99.90;;;;;;5133882;27;20162;-75
2023/03/11 02:25:42;;;;;;;8.10;2.47;;;3.00;99.90;;;;;;5134029;27;20189;-77
2023/03/11 02:28:12;;;;;;;9.17;2.73;;;3.00;99.90;;;;;;5115677;27;20165;-76
2023/03/11 02:30:41;;;;;;;11.50;2.77;;;3.10;99.90;;;;;;5129940;27;20162;-77
2023/03/11 02:33:08;;;;;;;8.20;2.63;;;3.30;99.90;;;;;;5113069;28;20211;-76
2023/03/11 02:35:34;;;;;;;10.47;2.43;;;3.30;99.90;;;;;;5113358;28;20617;-76
2023/03/11 02:37:59;;;;;;;8.07;2.27;;;3.40;99.90;;;;;;5112102;28;20170;-76
2023/03/11 02:40:36;;;;;;;10.23;2.40;;;3.50;99.90;;;;;;5094869;28;20181;-76
2023/03/11 02:43:09;;;;;;;9.73;2.90;;;3.40;99.90;;;;;;5113031;28;20247;-75
2023/03/11 02:45:38;;;;;;;7.17;2.50;;;3.40;99.90;;;;;;5112998;28;20203;-77
2023/03/11 02:48:05;;;;;;;9.13;2.43;;;3.50;99.90;;;;;;5113168;28;20158;-75
2023/03/11 02:50:33;;;;;;;8.70;2.40;;;3.30;99.90;;;;;;5112999;28;20166;-77
2023/03/11 02:52:59;;;;;;;11.23;3.03;;;3.30;99.90;;;;;;5113049;28;20530;-76
2023/03/11 02:55:24;;;;;;;9.63;3.17;;;3.20;99.90;;;;;;5113059;28;20165;-76
2023/03/11 02:57:51;;;;;;;9.33;2.90;;;3.30;99.90;;;;;;5094803;28;20177;-76
2023/03/11 03:00:17;;;;;;;8.00;2.83;;;3.20;99.90;;;;;;5112850;28;20163;-77
2023/03/11 03:02:44;;;;;;;6.23;2.47;;;3.40;99.90;;;;;;5113031;28;20526;-75
2023/03/11 03:05:10;;;;;;;8.43;2.80;;;3.40;99.90;;;;;;5112539;28;20245;-76
2023/03/11 03:07:37;;;;;;;7.43;2.63;;;3.20;99.90;;;;;;5119324;28;20180;-77
2023/03/11 03:10:04;;;;;;;9.30;2.80;;;3.20;99.90;;;;;;5115203;28;20237;-76
2023/03/11 03:12:30;;;;;;;10.20;2.80;;;3.10;99.90;;;;;;5133462;28;20239;-74
2023/03/11 03:14:57;;;;;;;11.17;2.67;;;3.20;99.90;;;;;;5133523;28;20636;-75
2023/03/11 03:17:24;;;;;;;10.23;2.80;;;3.30;99.90;;;;;;5114799;28;20200;-74
2023/03/11 03:19:49;;;;;;;13.50;2.93;;;3.30;99.90;;;;;;5114835;28;20170;-75
2023/03/11 03:22:16;;;;;;;7.93;2.90;;;3.30;99.90;;;;;;5114872;28;20618;-75
2023/03/11 03:24:41;;;;;;;7.87;2.87;;;3.30;99.90;;;;;;5133509;28;20170;-75
2023/03/11 03:27:07;;;;;;;6.23;3.17;;;3.10;99.90;;;;;;5114796;28;20250;-74
2023/03/11 03:29:33;;;;;;;7.03;3.20;;;3.00;99.90;;;;;;5123804;28;20580;-73
2023/03/11 03:31:58;;;;;;;10.00;2.83;;;3.20;99.90;;;;;;5113130;28;20162;-74
2023/03/11 03:34:24;;;;;;;9.13;3.07;;;3.30;99.90;;;;;;5094253;28;20215;-74
2023/03/11 03:36:49;;;;;;;7.70;2.93;;;3.30;99.90;;;;;;5094617;28;20533;-75
2023/03/11 03:39:17;;;;;;;12.77;3.20;;;3.40;99.90;;;;;;5112780;28;20185;-75
2023/03/11 03:41:43;;;;;;;7.33;2.87;;;3.40;99.90;;;;;;5113433;28;20615;-76
2023/03/11 03:44:08;;;;;;;6.37;2.57;;;3.30;99.90;;;;;;5114340;28;20218;-76
2023/03/11 03:46:34;;;;;;;8.17;2.93;;;3.10;99.90;;;;;;5133415;28;20646;-74
2023/03/11 03:49:00;;;;;;;6.87;3.20;;;3.10;99.90;;;;;;5116628;27;20169;-75
2023/03/11 03:51:25;;;;;;;8.60;2.23;;;3.20;99.90;;;;;;5118403;27;20161;-74
2023/03/11 03:53:51;;;;;;;6.53;2.30;;;3.10;99.90;;;;;;5118255;27;20162;-74
2023/03/11 03:56:17;;;;;;;10.53;2.80;;;3.30;99.90;;;;;;5136801;27;20169;-75
2023/03/11 03:58:43;;;;;;;10.30;3.07;;;3.40;99.90;;;;;;5118168;27;20193;-74
2023/03/11 04:01:10;;;;;;;8.30;3.00;;;3.30;99.90;;;;;;5116334;28;20629;-75
2023/03/11 04:03:36;;;;;;;5.90;2.77;;;3.50;99.90;;;;;;5116140;28;20159;-74
2023/03/11 04:06:23;;;;;;;5.80;2.77;;;3.50;99.90;;;;;;5097556;28;20210;-75
2023/03/11 04:08:53;;;;;;;9.10;2.80;;;3.20;99.90;;;;;;5097477;28;20180;-73
2023/03/11 04:11:19;;;;;;;10.33;2.73;;;3.20;99.90;;;;;;5098049;28;20174;-74
2023/03/11 04:13:45;;;;;;;10.57;3.13;;;3.30;99.90;;;;;;5097629;28;20166;-74
2023/03/11 04:16:18;;;;;;;7.53;2.70;;;3.20;99.90;;;;;;5097706;28;20223;-74
2023/03/11 04:18:44;;;;;;;8.90;3.07;;;3.30;99.90;;;;;;5097866;28;20196;-75
2023/03/11 04:21:10;;;;;;;9.33;2.97;;;3.40;99.90;;;;;;5097783;28;20182;-74
2023/03/11 04:23:36;;;;;;;6.20;2.63;;;3.30;99.90;;;;;;5115665;28;20265;-76
2023/03/11 04:26:02;;;;;;;7.03;2.70;;;3.30;99.90;;;;;;5097428;28;20201;-74
2023/03/11 04:28:28;;;;;;;10.87;3.53;;;3.20;99.90;;;;;;5115374;28;20173;-75
2023/03/11 04:30:54;;;;;;;5.87;3.10;;;3.20;99.90;;;;;;5097192;28;20157;-73
2023/03/11 04:33:19;;;;;;;9.73;3.30;;;3.10;99.90;;;;;;5097214;28;20165;-74
2023/03/11 04:35:45;;;;;;;12.97;3.00;;;3.10;99.90;;;;;;5097085;28;20166;-74
2023/03/11 04:38:12;;;;;;;7.93;3.10;;;3.10;99.90;;;;;;5096926;28;20630;-75
2023/03/11 04:40:38;;;;;;;7.77;3.17;;;3.10;99.90;;;;;;5096966;28;20185;-74
2023/03/11 04:43:03;;;;;;;7.17;3.10;;;3.00;99.90;;;;;;5097164;28;20319;-74
2023/03/11 04:45:30;;;;;;;8.83;2.73;;;2.90;99.90;;;;;;5096727;28;20203;-74
2023/03/11 04:47:57;;;;;;;5.40;2.70;;;2.70;99.90;;;;;;5102430;27;20181;-75
2023/03/11 04:50:22;;;;;;;11.30;3.53;;;2.60;99.90;;;;;;5135633;27;20637;-73
2023/03/11 04:52:48;;;;;;;7.50;2.70;;;2.60;99.90;;;;;;5135665;27;20150;-75
2023/03/11 04:55:14;;;;;;;6.97;2.80;;;2.60;99.90;;;;;;5135530;27;20151;-74
2023/03/11 04:57:41;;;;;;;4.17;2.47;;;2.60;99.90;;;;;;5117090;27;20575;-73
2023/03/11 05:00:10;;;;;;;6.47;2.90;;;2.50;99.90;;;;;;5116059;27;20177;-74
2023/03/11 05:02:36;;;;;;;8.27;3.00;;;2.40;99.90;;;;;;5135384;27;20185;-75
2023/03/11 05:05:02;;;;;;;6.83;3.20;;;2.40;99.90;;;;;;5135167;27;20149;-74
2023/03/11 05:07:28;;;;;;;7.30;3.73;;;2.50;99.90;;;;;;5130720;27;20243;-74
2023/03/11 05:09:53;;;;;;;9.57;4.43;;;2.50;99.90;;;;;;5114750;28;20163;-74
2023/03/11 05:12:19;;;;;;;7.93;2.97;;;2.60;99.90;;;;;;5096464;28;20635;-74
2023/03/11 05:14:44;;;;;;;6.33;3.53;;;2.60;99.90;;;;;;5114419;28;20149;-74
2023/03/11 05:17:12;;;;;;;9.67;3.30;;;2.70;99.90;;;;;;5128358;27;20165;-75
2023/03/11 05:19:38;;;;;;;8.40;2.83;;;2.70;99.90;;;;;;5114616;28;20153;-74
2023/03/11 05:22:05;;;;;;;9.03;3.17;;;2.70;99.90;;;;;;5096422;28;20214;-74
2023/03/11 05:24:31;;;;;;;10.00;3.83;;;2.80;99.90;;;;;;5114467;28;20158;-74
2023/03/11 05:26:57;;;;;;;9.97;3.40;;;2.90;99.90;;;;;;5096249;28;20292;-74
2023/03/11 05:29:24;;;;;;;6.03;2.93;;;2.80;99.90;;;;;;5114543;28;20199;-73
2023/03/11 05:31:50;;;;;;;10.47;3.70;;;2.70;99.90;;;;;;5095873;28;20166;-75
2023/03/11 05:34:16;;;;;;;12.17;3.17;;;2.70;99.90;;;;;;5095790;28;20170;-74
2023/03/11 05:36:42;;;;;;;10.63;3.50;;;2.70;99.90;;;;;;5113886;28;20170;-74
2023/03/11 05:39:08;;;;;;;13.67;3.50;;;2.80;99.90;;;;;;5131871;27;20193;-74
2023/03/11 05:41:33;;;;;;;8.27;3.40;;;2.80;99.90;;;;;;5134509;27;20630;-74
2023/03/11 05:44:00;;;;;;;9.93;3.50;;;2.70;99.90;;;;;;5116066;27;20169;-73
2023/03/11 05:46:26;;;;;;;10.27;3.60;;;2.50;99.90;;;;;;5134109;27;20203;-74
2023/03/11 05:48:51;;;;;;;6.80;3.30;;;2.50;99.90;;;;;;5116571;27;20532;-74
2023/03/11 05:51:17;;;;;;;6.77;3.30;;;2.40;99.90;;;;;;5134605;27;20248;-75
2023/03/11 05:53:48;;;;;;;9.20;4.30;;;2.50;99.90;;;;;;5115865;27;20169;-74
2023/03/11 05:56:17;;;;;;;4.90;3.20;;;2.40;99.90;;;;;;5134342;27;20149;-74
2023/03/11 05:58:43;;;;;;;10.37;3.60;;;2.20;99.90;;;;;;5134331;27;20172;-74
2023/03/11 06:01:10;;;;;;;12.27;4.20;;;2.30;99.90;;;;;;5134149;27;20161;-73
2023/03/11 06:03:37;;;;;;;11.87;4.23;;;2.40;99.90;;;;;;5115754;27;20176;-74
2023/03/11 06:06:05;;;;;;;10.80;3.87;;;2.60;99.90;;;;;;5133939;27;20197;-75
2023/03/11 06:08:33;;;;;;;9.07;4.03;;;2.60;99.90;;;;;;5102387;28;20635;-74
2023/03/11 06:11:08;;;;;;;11.40;4.23;;;2.50;99.90;;;;;;5112885;28;20606;-75
2023/03/11 06:13:35;;;;;;;11.37;4.10;;;2.50;99.90;;;;;;5112932;28;20158;-75
2023/03/11 06:16:01;;;;;;;8.23;4.60;;;2.50;99.90;;;;;;5095006;28;20197;-75
2023/03/11 06:18:27;;;;;;;10.13;4.00;;;2.50;99.90;;;;;;5120761;27;20193;-74
2023/03/11 06:20:56;;;;;;;10.50;4.00;;;2.60;99.90;;;;;;5115072;27;20314;-74
2023/03/11 06:23:22;;;;;;;11.40;4.10;;;2.60;99.90;;;;;;5133863;27;20168;-75
2023/03/11 06:25:56;;;;;;;10.40;4.70;;;2.80;99.90;;;;;;5115434;27;20549;-75
2023/03/11 06:28:22;;;;;;;16.17;5.07;;;2.70;99.90;;;;;;5133678;27;20157;-75
2023/03/11 06:30:48;;;;;;;10.40;4.13;;;2.70;99.90;;;;;;5131699;27;20191;-74
2023/03/11 06:33:13;;;;;;;7.53;4.20;;;2.70;99.90;;;;;;5115160;27;20638;-75
2023/03/11 06:35:39;;;;;;;14.87;4.13;;;2.70;99.90;;;;;;5116156;27;20222;-75
2023/03/11 06:38:06;;;;;;;8.80;3.80;;;2.70;99.90;;;;;;5099666;28;20178;-75
2023/03/11 06:40:32;;;;;;;7.33;4.43;;;2.70;99.90;;;;;;5115257;27;20165;-74
2023/03/11 06:42:57;;;;;;;11.90;4.10;;;2.90;99.90;;;;;;5114986;28;20176;-74
2023/03/11 06:45:23;;;;;;;10.83;4.20;;;3.00;99.90;;;;;;5131874;28;20185;-75
2023/03/11 06:47:50;;;;;;;7.90;3.77;;;2.90;99.90;;;;;;5098209;28;20540;-76
2023/03/11 06:50:16;;;;;;;10.13;4.40;;;2.90;99.90;;;;;;5097011;28;20215;-74
2023/03/11 06:52:41;;;;;;;9.30;4.00;;;2.90;99.90;;;;;;5114908;28;20157;-76
2023/03/11 06:55:08;;;;;;;9.93;4.13;;;2.80;99.90;;;;;;5115406;28;20169;-73
2023/03/11 06:57:34;;;;;;;6.97;4.37;;;2.90;99.90;;;;;;5114557;28;20160;-74
2023/03/11 07:00:00;;;;;;;13.97;4.10;;;2.90;99.90;;;;;;5114874;28;20176;-75
2023/03/11 07:02:26;;;;;;;12.07;5.30;;;2.90;99.90;;;;;;5114495;28;20203;-76
2023/03/11 07:04:52;;;;;;;9.50;3.87;;;2.90;99.90;;;;;;5114338;28;20173;-74
2023/03/11 07:07:19;;;;;;;11.37;4.00;;;3.00;99.90;;;;;;5114471;28;20223;-75
2023/03/11 07:09:45;;;;;;;8.97;4.17;;;2.90;99.90;;;;;;5114798;28;20310;-75
2023/03/11 07:12:11;;;;;;;13.57;4.00;;;3.00;99.90;;;;;;5114047;28;20177;-75
2023/03/11 07:14:36;;;;;;;8.83;4.07;;;3.20;99.90;;;;;;5094269;28;20166;-76
2023/03/11 07:17:03;;;;;;;13.00;4.47;;;3.40;99.90;;;;;;5094177;28;20201;-75
2023/03/11 07:19:29;;;;;;;9.60;4.30;;;3.50;99.90;;;;;;5094176;28;20170;-75
2023/03/11 07:21:54;;;;;;;11.07;3.90;;;3.40;99.90;;;;;;5094380;28;20282;-76
2023/03/11 07:24:20;;;;;;;10.13;4.47;;;3.30;99.90;;;;;;5115155;28;20155;-75
2023/03/11 07:26:46;;;;;;;10.97;4.60;;;3.20;99.90;;;;;;5116240;28;20199;-75
2023/03/11 07:29:11;;;;;;;15.03;6.90;;;3.30;99.90;;;;;;5120588;27;20214;-75
2023/03/11 07:31:37;;;;;;;11.87;4.73;;;3.30;99.90;;;;;;5108569;27;20162;-75
2023/03/11 07:34:09;;;;;;;21.27;5.17;;;3.30;99.90;;;;;;5136102;27;20168;-74
2023/03/11 07:36:35;;;;;;;8.60;3.63;;;3.60;99.90;;;;;;5113642;28;20171;-74
2023/03/11 07:39:04;;;;;;;8.30;3.57;;;3.60;99.90;;;;;;5100731;27;20177;-74
2023/03/11 07:41:33;;;;;;;8.60;4.20;;;3.50;99.90;;;;;;5114941;28;20174;-74
2023/03/11 07:44:02;;;;;;;12.33;4.00;;;3.50;99.90;;;;;;5098225;28;20162;-76
2023/03/11 07:46:31;;;;;;;13.00;4.80;;;3.70;99.90;;;;;;5116097;28;20182;-77
2023/03/11 07:49:01;;;;;;;11.17;4.70;;;3.70;99.90;;;;;;5100068;28;20591;-75
2023/03/11 07:51:32;;;;;;;12.63;4.60;;;3.70;99.90;;;;;;5102270;28;20270;-75
2023/03/11 07:54:01;;;;;;;8.83;3.90;;;3.60;99.90;;;;;;5098408;28;20194;-75
2023/03/11 07:56:32;;;;;;;7.47;3.90;;;3.70;99.90;;;;;;5116293;28;20150;-75
2023/03/11 07:58:59;;;;;;;7.57;3.57;;;3.80;99.90;;;;;;5134593;27;20173;-76
2023/03/11 08:01:29;;;;;;;12.00;3.83;;;3.80;99.90;;;;;;5115830;27;20170;-76
2023/03/11 08:03:57;;;;;;;11.37;3.50;;;3.80;99.90;;;;;;5136999;27;20165;-75
2023/03/11 08:06:27;;;;;;;7.00;3.70;;;3.90;99.90;;;;;;5136104;27;20228;-75
2023/03/11 08:08:53;;;;;;;8.83;3.80;;;4.00;99.90;;;;;;5136475;27;20258;-75
2023/03/11 08:11:21;;;;;;;11.73;3.90;;;4.10;99.90;;;;;;5136555;27;20214;-76
2023/03/11 08:13:47;;;;;;;7.03;3.77;;;4.10;99.90;;;;;;5100314;28;20169;-75
2023/03/11 08:16:15;;;;;;;8.20;4.00;;;4.20;99.90;;;;;;5132656;27;20166;-75
2023/03/11 08:18:41;;;;;;;9.07;3.90;;;4.40;99.90;;;;;;5117483;27;20186;-76
2023/03/11 08:21:11;;;;;;;10.03;3.43;;;4.50;99.90;;;;;;5098337;28;20181;-75
2023/03/11 08:23:39;;;;;;;7.07;3.13;;;4.50;99.90;;;;;;5097272;28;20298;-76
2023/03/11 08:26:11;;;;;;;6.73;3.43;;;4.60;99.90;;;;;;5098139;28;20199;-76
2023/03/11 08:28:37;;;;;;;8.47;4.07;;;4.70;99.90;;;;;;5117302;27;20178;-74
2023/03/11 08:31:10;;;;;;;12.63;4.07;;;4.70;99.90;;;;;;5103077;28;20612;-75
2023/03/11 08:33:42;;;;;;;11.17;4.03;;;4.70;99.90;;;;;;5112901;27;20188;-77
2023/03/11 08:36:08;;;;;;;18.67;4.13;;;4.80;99.90;;;;;;5117619;27;20171;-76
2023/03/11 08:38:36;;;;;;;8.80;3.73;;;4.90;99.90;;;;;;5137222;27;20193;-76
2023/03/11 08:41:16;;;;;;;13.33;3.70;;;5.00;99.90;;;;;;5118697;27;20183;-75
2023/03/11 08:43:45;;;;;;;14.27;3.80;;;5.10;99.90;;;;;;5098176;27;20160;-76
2023/03/11 08:46:33;;;;;;;10.97;3.97;;;5.20;99.90;;;;;;5118231;27;20209;-76
2023/03/11 08:49:03;;;;;;;5.90;3.40;;;5.30;99.90;;;;;;5113109;27;20506;-75
2023/03/11 08:51:35;;;;;;;7.73;4.23;;;5.30;99.90;;;;;;5136097;27;20632;-74
2023/03/11 08:54:07;;;;;;;10.20;3.53;;;5.40;99.90;;;;;;5135851;27;20171;-75
2023/03/11 08:56:34;;;;;;;8.73;3.00;;;5.60;99.90;;;;;;5140704;27;20190;-74
2023/03/11 08:58:59;;;;;;;9.30;3.80;;;5.70;99.90;;;;;;5137499;27;20485;-74
2023/03/11 09:01:25;;;;;;;7.13;2.57;;;5.70;99.90;;;;;;5135902;27;20224;-74
2023/03/11 09:03:53;;;;;;;8.83;3.37;;;5.60;99.90;;;;;;5117360;27;20167;-75
2023/03/11 09:06:19;;;;;;;7.77;2.43;;;5.70;99.90;;;;;;5135511;27;20208;-74
2023/03/11 09:08:47;;;;;;;5.10;2.30;;;5.80;99.90;;;;;;5117481;27;20165;-74
2023/03/11 09:11:15;;;;;;;7.47;2.37;;;5.90;99.90;;;;;;5137457;27;20171;-75
2023/03/11 09:13:42;;;;;;;13.27;2.37;;;5.90;99.90;;;;;;5117788;27;20179;-73
2023/03/11 09:16:12;;;;;;;5.47;2.30;;;6.00;99.90;;;;;;5116596;27;20897;-74
2023/03/11 09:18:38;;;;;;;5.67;2.10;;;6.10;99.90;;;;;;5104692;28;20177;-74
2023/03/11 09:21:04;;;;;;;4.83;2.17;;;6.20;99.90;;;;;;5114862;28;20241;-74
2023/03/11 09:23:33;;;;;;;11.23;2.47;;;6.40;99.90;;;;;;5117100;27;20612;-74
2023/03/11 09:25:59;;;;;;;4.27;1.53;;;6.50;99.90;;;;;;5135130;27;20182;-74
2023/03/11 09:28:26;;;;;;;7.30;1.93;;;6.50;99.90;;;;;;5116850;27;20159;-74
2023/03/11 09:30:52;;;;;;;4.07;1.20;;;6.40;99.90;;;;;;5112281;27;20255;-74
2023/03/11 09:33:18;;;;;;;2.50;0.97;;;6.60;99.90;;;;;;5109162;27;20649;-74
2023/03/11 09:35:43;;;;;;;5.03;1.27;;;6.70;99.90;;;;;;5140336;27;20206;-74
2023/03/11 09:38:11;;;;;;;4.43;1.03;;;6.70;99.90;;;;;;5123263;27;20547;-74
2023/03/11 09:41:09;;;;;;;8.87;1.83;;;6.70;99.90;;;;;;5124225;27;20171;-73
2023/03/11 09:43:59;;;;;;;4.53;1.30;;;6.80;99.90;;;;;;5058579;27;20187;-74
2023/03/11 09:46:52;;;;;;;6.83;1.20;;;7.10;99.90;;;;;;5115868;27;20278;-72
2023/03/11 09:49:27;;;;;;;6.83;1.50;;;7.10;99.90;;;;;;5128227;27;20185;-74
2023/03/11 09:52:14;;;;;;;3.60;0.97;;;6.90;99.90;;;;;;5137433;27;20225;-74
2023/03/11 09:54:45;;;;;;;5.90;1.30;;;6.90;99.90;;;;;;5122212;27;20614;-74
2023/03/11 09:57:17;;;;;;;6.47;1.63;;;6.80;99.90;;;;;;5145012;27;20161;-74
2023/03/11 09:59:45;;;;;;;1.90;1.00;;;6.70;99.90;;;;;;5136822;27;20162;-75
2023/03/11 10:02:18;;;;;;;5.03;1.43;;;6.80;99.90;;;;;;5136802;27;20191;-73
2023/03/11 10:05:07;;;;;;;5.67;1.50;;;7.00;99.90;;;;;;5121434;27;20174;-75
2023/03/11 10:07:38;;;;;;;5.43;1.73;;;7.20;99.90;;;;;;5146602;27;20190;-75
2023/03/11 10:10:05;;;;;;;5.90;1.50;;;7.30;99.90;;;;;;5112235;27;20186;-74
2023/03/11 10:12:59;;;;;;;5.20;1.33;;;7.20;99.90;;;;;;5127302;27;20526;-75
2023/03/11 10:15:35;;;;;;;6.83;1.50;;;7.10;99.90;;;;;;5106989;27;20166;-74
2023/03/11 10:18:28;;;;;;;4.47;1.47;;;7.10;99.90;;;;;;5139610;27;20493;-75
2023/03/11 10:21:05;;;;;;;2.93;1.30;;;7.20;99.90;;;;;;5141530;27;20166;-74
2023/03/11 10:24:08;;;;;;;4.93;1.50;;;7.50;99.60;;;;;;5127440;27;20240;-74
2023/03/11 10:26:42;;;;;;;1.80;1.03;;;7.70;99.20;;;;;;5111757;27;20297;-74
2023/03/11 10:29:11;;;;;;;3.73;1.40;;;7.70;99.90;;;;;;5111296;27;20187;-73
2023/03/11 10:31:46;;;;;;;3.57;0.93;;;8.20;99.90;;;;;;5132961;27;20183;-73
2023/03/11 10:34:47;;;;;;;5.87;1.37;;;8.60;98.80;;;;;;5108618;27;20684;-73
2023/03/11 10:37:27;;;;;;;4.77;1.47;;;8.30;98.00;;;;;;5103494;27;20644;-74
2023/03/11 10:39:53;;;;;;;7.87;1.33;;;8.40;98.50;;;;;;5101435;28;20174;-75
2023/03/11 10:42:27;;;;;;;2.30;1.17;;;8.60;97.90;;;;;;5118883;28;20165;-74
2023/03/11 10:44:54;;;;;;;3.20;1.63;;;9.00;97.70;;;;;;5100284;28;20161;-74
2023/03/11 10:47:24;;;;;;;6.97;1.40;;;9.30;96.00;;;;;;5095054;28;20210;-74
2023/03/11 10:49:51;;;;;;;4.33;1.57;;;9.30;96.00;;;;;;5113123;28;20170;-74
2023/03/11 10:52:17;;;;;;;4.10;1.03;;;9.30;96.00;;;;;;5113292;28;20245;-74
2023/03/11 10:54:46;;;;;;;6.53;1.63;;;9.40;96.20;;;;;;5094866;28;20181;-75
2023/03/11 10:57:20;;;;;;;5.43;1.33;;;9.30;96.70;;;;;;5112945;28;20606;-74
2023/03/11 10:59:47;;;;;;;2.53;1.10;;;9.30;96.10;;;;;;5117001;28;20537;-76
2023/03/11 11:02:24;;;;;;;6.23;1.20;;;9.60;95.10;;;;;;5099137;28;20583;-74
2023/03/11 11:05:02;;;;;;;4.40;1.03;;;9.90;94.80;;;;;;5116837;28;20238;-74
2023/03/11 11:07:37;;;;;;;6.33;1.60;;;10.00;94.10;;;;;;5098865;28;20197;-74
2023/03/11 11:10:48;;;;;;;5.97;1.57;;;10.00;93.80;;;;;;5099267;28;20248;-73
2023/03/11 11:13:16;;;;;;;9.47;1.93;;;10.10;94.40;;;;;;5018137;28;20614;-74
2023/03/11 11:16:01;;;;;;;4.67;1.90;;;10.10;93.90;;;;;;5089390;28;20174;-74
2023/03/11 11:18:48;;;;;;;4.13;2.00;;;10.10;94.20;;;;;;5098586;28;20181;-74
2023/03/11 11:21:34;;;;;;;6.20;1.50;;;10.30;92.60;;;;;;5117058;28;20162;-75
2023/03/11 11:24:24;;;;;;;7.03;1.50;;;10.20;92.70;;;;;;5117479;28;20162;-74
2023/03/11 11:27:05;;;;;;;3.33;1.20;;;10.70;92.00;;;;;;5098439;28;20194;-74
2023/03/11 11:29:31;;;;;;;5.77;1.80;;;11.30;91.70;;;;;;5098342;28;20634;-75
2023/03/11 11:32:20;;;;;;;4.17;1.50;;;11.20;91.00;;;;;;5116321;28;20167;-74
2023/03/11 11:35:05;;;;;;;4.77;1.90;;;11.40;90.70;;;;;;5116159;28;20172;-74
2023/03/11 11:37:35;;;;;;;3.77;1.30;;;11.30;91.30;;;;;;5097250;28;20191;-74
2023/03/11 11:40:13;;;;;;;4.07;1.43;;;11.60;90.90;;;;;;5116476;28;20169;-75
2023/03/11 11:43:05;;;;;;;4.77;1.73;;;11.90;90.30;;;;;;5116442;28;20206;-75
2023/03/11 11:45:39;;;;;;;8.03;1.97;;;12.30;90.00;;;;;;5103254;28;20177;-76
2023/03/11 11:48:30;;;;;;;8.27;2.27;;;13.00;88.90;;;;;;5116504;28;20546;-75
2023/03/11 11:50:59;;;;;;;6.40;1.53;;;13.30;87.60;;;;;;5116397;28;20543;-75
2023/03/11 11:53:39;;;;;;;6.33;1.30;;;12.40;86.30;;;;;;5116294;28;20162;-76
2023/03/11 11:56:05;;;;;;;7.17;1.90;;;11.80;85.30;;;;;;5115992;28;20252;-75
2023/03/11 11:58:31;;;;;;;5.13;1.70;;;11.30;88.30;;;;;;5115883;28;20195;-74
2023/03/11 12:01:28;;;;;;;4.30;1.50;;;12.00;88.30;;;;;;5097428;28;20701;-74
2023/03/11 12:04:22;;;;;;;4.43;1.70;;;12.90;85.40;;;;;;5063256;28;20637;-75
2023/03/11 12:07:09;;;;;;;4.17;1.43;;;13.60;84.60;;;;;;5115416;28;20666;-74
2023/03/11 12:09:46;;;;;;;7.07;1.70;;;13.10;84.40;;;;;;5097041;28;20192;-73
2023/03/11 12:12:39;;;;;;;3.70;1.50;;;13.10;84.60;;;;;;5115617;28;20654;-75
2023/03/11 12:15:19;;;;;;;5.67;1.50;;;13.00;83.50;;;;;;5115707;28;20287;-75
2023/03/11 12:17:49;;;;;;;6.90;1.63;;;12.70;83.70;;;;;;5115507;28;20221;-73
2023/03/11 12:20:26;;;;;;;7.33;1.83;;;12.70;84.20;;;;;;5116034;28;20504;-74
2023/03/11 12:23:16;;;;;;;7.83;1.80;;;13.20;83.70;;;;;;5115431;28;20571;-74
2023/03/11 12:26:02;;;;;;;6.13;1.97;;;13.30;80.50;;;;;;5115740;28;20257;-74
2023/03/11 12:28:59;;;;;;;5.20;1.80;;;13.50;81.70;;;;;;5116066;28;20182;-73
2023/03/11 12:31:30;;;;;;;4.33;2.00;;;13.00;81.10;;;;;;5116248;28;20190;-75
2023/03/11 12:34:01;;;;;;;3.10;1.57;;;12.60;81.90;;;;;;5096676;28;20550;-74
2023/03/11 12:36:32;;;;;;;4.70;1.87;;;12.40;83.90;;;;;;5114976;28;20174;-73
2023/03/11 12:39:02;;;;;;;6.97;2.07;;;12.40;82.70;;;;;;5114802;28;20654;-74
2023/03/11 12:41:30;;;;;;;7.33;2.00;;;12.10;83.90;;;;;;5115044;28;20195;-74
2023/03/11 12:44:00;;;;;;;7.20;1.80;;;12.00;83.90;;;;;;5114845;28;20256;-74
2023/03/11 12:46:56;;;;;;;5.47;2.27;;;12.20;84.90;;;;;;5114822;28;20599;-74
2023/03/11 12:49:33;;;;;;;6.53;1.97;;;12.30;85.70;;;;;;5115096;28;20173;-74
2023/03/11 12:52:11;;;;;;;6.73;2.27;;;12.40;85.60;;;;;;5096804;28;20173;-75
2023/03/11 12:54:39;;;;;;;8.03;2.10;;;12.60;83.50;;;;;;5096838;28;20184;-74
2023/03/11 12:57:17;;;;;;;8.57;1.93;;;12.40;84.30;;;;;;5114776;28;20177;-74
2023/03/11 13:00:01;;;;;;;5.20;1.90;;;12.10;86.70;;;;;;5114727;28;20553;-74
2023/03/11 13:02:48;;;;;;;5.50;1.90;;;11.90;87.00;;;;;;5114669;28;20261;-74
2023/03/11 13:05:38;;;;;;;7.17;1.77;;;12.00;86.50;;;;;;5114152;28;20178;-73
2023/03/11 13:08:22;;;;;;;6.20;1.90;;;12.20;85.40;;;;;;5114562;28;20175;-74